Time;durP1;ratioP1;P1;durP2;ratioP2;P2;SDS_P1;SDS_P2;PMS_P1;PMS_P2;Temp;Humidity;BMP_temperature;BMP_pressure;BME280_temperature;BME280_humidity;BME280_pressure;Samples;Min_cycle;Max_cycle;Signal;HPM_P1;HPM_P2
2023/08/01 00:00:29;;;;;;;6.25;2.47;;;19.00;99.90;;;;;;5067095;28;20041;-85
2023/08/01 00:02:55;;;;;;;4.70;2.00;;;18.90;99.90;;;;;;5073956;28;20053;-81
2023/08/01 00:05:20;;;;;;;4.43;2.40;;;18.90;99.90;;;;;;5073511;28;20028;-81
2023/08/01 00:07:46;;;;;;;4.40;2.25;;;19.00;99.90;;;;;;5055104;28;20440;-81
2023/08/01 00:10:11;;;;;;;4.50;2.15;;;19.00;99.90;;;;;;5073177;28;20052;-81
2023/08/01 00:12:37;;;;;;;4.15;2.10;;;18.90;99.90;;;;;;5055773;28;20024;-82
2023/08/01 00:15:03;;;;;;;5.60;2.60;;;18.90;99.90;;;;;;5073835;28;20032;-81
2023/08/01 00:17:29;;;;;;;4.80;2.10;;;18.90;99.90;;;;;;5059654;28;20024;-81
2023/08/01 00:19:55;;;;;;;5.95;2.50;;;18.90;99.90;;;;;;5059249;28;20036;-82
2023/08/01 00:22:20;;;;;;;5.82;2.20;;;18.90;99.90;;;;;;5077255;28;20099;-81
2023/08/01 00:24:47;;;;;;;5.72;2.50;;;18.90;99.90;;;;;;5058974;28;20120;-81
2023/08/01 00:27:13;;;;;;;5.57;2.40;;;18.90;99.90;;;;;;5077271;28;20454;-81
2023/08/01 00:29:39;;;;;;;3.70;2.22;;;18.90;99.90;;;;;;5076248;28;20102;-81
2023/08/01 00:32:05;;;;;;;3.78;2.45;;;18.90;99.90;;;;;;5059570;28;20466;-80
2023/08/01 00:34:30;;;;;;;7.15;2.40;;;18.90;99.90;;;;;;5059723;28;20024;-81
2023/08/01 00:36:57;;;;;;;8.40;2.45;;;18.90;99.90;;;;;;5058876;28;20025;-80
2023/08/01 00:39:22;;;;;;;9.18;2.53;;;18.90;99.90;;;;;;5077139;28;20036;-81
2023/08/01 00:41:48;;;;;;;6.00;2.40;;;18.90;99.90;;;;;;5076366;28;20021;-82
2023/08/01 00:44:13;;;;;;;5.05;2.50;;;18.90;99.90;;;;;;5076976;28;20056;-81
2023/08/01 00:46:39;;;;;;;6.03;3.08;;;18.90;99.90;;;;;;5076670;28;20025;-82
2023/08/01 00:49:05;;;;;;;5.05;2.47;;;18.90;99.90;;;;;;5059071;28;20033;-82
2023/08/01 00:51:32;;;;;;;4.15;1.92;;;18.90;99.90;;;;;;5059102;28;20024;-81
2023/08/01 00:53:58;;;;;;;4.65;2.22;;;18.90;99.90;;;;;;5076792;28;20029;-82
2023/08/01 00:56:24;;;;;;;4.95;2.40;;;18.90;99.90;;;;;;5058962;28;20032;-82
2023/08/01 00:58:50;;;;;;;4.38;2.28;;;18.90;99.90;;;;;;5075875;28;20024;-82
2023/08/01 01:01:15;;;;;;;4.47;2.60;;;18.90;99.90;;;;;;5076842;28;20056;-81
2023/08/01 01:03:41;;;;;;;5.22;2.50;;;18.90;99.90;;;;;;5058385;28;20058;-82
2023/08/01 01:06:15;;;;;;;4.63;2.20;;;18.80;99.90;;;;;;5058619;28;20024;-81
2023/08/01 01:08:41;;;;;;;4.53;2.40;;;18.80;99.90;;;;;;5076094;28;20021;-81
2023/08/01 01:11:07;;;;;;;5.13;2.30;;;18.80;99.90;;;;;;5076355;28;20474;-82
2023/08/01 01:13:33;;;;;;;5.68;2.60;;;18.80;99.90;;;;;;5058815;28;20115;-81
2023/08/01 01:15:59;;;;;;;5.03;2.88;;;18.80;99.90;;;;;;5058337;28;20115;-81
2023/08/01 01:18:24;;;;;;;3.95;2.20;;;18.80;99.90;;;;;;5076367;28;20028;-81
2023/08/01 01:20:50;;;;;;;7.82;2.78;;;18.80;99.90;;;;;;5058280;28;20467;-81
2023/08/01 01:23:16;;;;;;;3.95;1.92;;;18.80;99.90;;;;;;5058616;28;20032;-81
2023/08/01 01:25:42;;;;;;;5.13;2.40;;;18.70;99.90;;;;;;5058222;28;20047;-81
2023/08/01 01:28:09;;;;;;;6.15;2.60;;;18.80;99.90;;;;;;5074834;28;20032;-81
2023/08/01 01:30:36;;;;;;;5.88;2.67;;;18.80;99.90;;;;;;5058273;28;20385;-85
2023/08/01 01:33:03;;;;;;;7.72;3.03;;;18.70;99.90;;;;;;5058259;28;20024;-81
2023/08/01 01:35:29;;;;;;;5.65;2.33;;;18.70;99.90;;;;;;5075879;28;20044;-79
2023/08/01 01:37:55;;;;;;;3.92;2.20;;;18.70;99.90;;;;;;5058155;28;20792;-81
2023/08/01 01:40:20;;;;;;;6.07;2.38;;;18.70;99.90;;;;;;5058142;28;20078;-80
2023/08/01 01:42:48;;;;;;;9.98;2.60;;;18.70;99.90;;;;;;5075693;28;20107;-81
2023/08/01 01:45:14;;;;;;;5.55;2.50;;;18.70;99.90;;;;;;5058102;28;20492;-81
2023/08/01 01:47:40;;;;;;;6.20;2.65;;;18.70;99.90;;;;;;5057624;28;20025;-85
2023/08/01 01:50:06;;;;;;;5.00;2.65;;;18.70;99.90;;;;;;5058244;28;20059;-80
2023/08/01 01:52:32;;;;;;;7.32;2.30;;;18.60;99.90;;;;;;5058363;28;20086;-81
2023/08/01 01:54:58;;;;;;;6.07;2.55;;;18.60;99.90;;;;;;5057516;28;20062;-81
2023/08/01 01:57:24;;;;;;;8.13;2.50;;;18.60;99.90;;;;;;5058141;28;20386;-81
2023/08/01 01:59:49;;;;;;;4.72;2.30;;;18.70;99.90;;;;;;5056954;28;20063;-81
2023/08/01 02:02:15;;;;;;;6.18;2.70;;;18.60;99.90;;;;;;5075326;28;20104;-81
2023/08/01 02:04:41;;;;;;;5.63;2.42;;;18.60;99.90;;;;;;5056835;28;20465;-85
2023/08/01 02:07:07;;;;;;;6.03;2.55;;;18.60;99.90;;;;;;5058025;28;20032;-81
2023/08/01 02:09:32;;;;;;;5.55;2.35;;;18.60;99.90;;;;;;5057120;28;20413;-81
2023/08/01 02:11:58;;;;;;;3.63;2.40;;;18.70;99.90;;;;;;5057070;28;20618;-81
2023/08/01 02:14:23;;;;;;;6.97;2.90;;;18.60;99.90;;;;;;5074769;28;20100;-82
2023/08/01 02:16:49;;;;;;;4.78;2.22;;;18.70;99.90;;;;;;5074844;28;20029;-82
2023/08/01 02:19:15;;;;;;;6.68;2.33;;;18.70;99.90;;;;;;5074971;28;20028;-82
2023/08/01 02:21:40;;;;;;;4.82;2.67;;;18.70;99.90;;;;;;5057157;28;20085;-84
2023/08/01 02:24:06;;;;;;;5.57;2.50;;;18.70;99.90;;;;;;5074478;28;20032;-81
2023/08/01 02:26:31;;;;;;;4.43;2.20;;;18.70;99.90;;;;;;5057671;28;20036;-81
2023/08/01 02:28:57;;;;;;;4.80;2.60;;;18.70;99.90;;;;;;5056796;28;20028;-80
2023/08/01 02:31:22;;;;;;;4.18;2.08;;;18.70;99.90;;;;;;5057292;28;20027;-80
2023/08/01 02:33:48;;;;;;;8.50;2.63;;;18.70;99.90;;;;;;5074551;28;20032;-81
2023/08/01 02:36:14;;;;;;;4.32;2.45;;;18.70;99.90;;;;;;5057373;28;20475;-81
2023/08/01 02:38:39;;;;;;;6.75;2.78;;;18.80;99.90;;;;;;5056360;28;20052;-84
2023/08/01 02:41:05;;;;;;;5.20;2.00;;;18.80;99.90;;;;;;5074681;28;20464;-80
2023/08/01 02:43:30;;;;;;;6.63;2.03;;;18.90;99.90;;;;;;5057149;28;20082;-80
2023/08/01 02:45:56;;;;;;;5.07;2.30;;;18.90;99.90;;;;;;5074272;28;20025;-80
2023/08/01 02:48:21;;;;;;;4.10;2.22;;;18.90;99.90;;;;;;5057056;28;20025;-80
2023/08/01 02:50:47;;;;;;;7.25;2.50;;;19.00;99.90;;;;;;5074360;28;20350;-81
2023/08/01 02:53:13;;;;;;;6.28;2.53;;;19.00;99.90;;;;;;5074581;28;20029;-80
2023/08/01 02:55:39;;;;;;;4.35;2.30;;;19.10;99.90;;;;;;5075021;28;20372;-81
2023/08/01 02:58:04;;;;;;;7.75;2.35;;;19.10;99.90;;;;;;5073223;28;20032;-81
2023/08/01 03:00:31;;;;;;;4.35;2.10;;;19.10;99.90;;;;;;5074041;28;20044;-80
2023/08/01 03:02:57;;;;;;;6.05;1.98;;;19.10;99.90;;;;;;5072872;28;20025;-81
2023/08/01 03:05:22;;;;;;;5.65;2.60;;;19.10;99.90;;;;;;5073598;28;20028;-81
2023/08/01 03:07:48;;;;;;;6.10;2.53;;;19.10;99.90;;;;;;5062812;28;20484;-81
2023/08/01 03:10:14;;;;;;;3.35;2.20;;;19.10;99.90;;;;;;5056471;28;20044;-80
2023/08/01 03:12:39;;;;;;;3.63;1.95;;;19.10;99.90;;;;;;5074319;28;20047;-80
2023/08/01 03:15:08;;;;;;;3.72;2.28;;;19.10;99.90;;;;;;5056264;28;20085;-81
2023/08/01 03:17:34;;;;;;;6.15;2.75;;;19.00;99.90;;;;;;5074283;28;20020;-81
2023/08/01 03:19:59;;;;;;;6.30;2.20;;;18.90;99.90;;;;;;5073685;28;20032;-81
2023/08/01 03:22:25;;;;;;;5.47;2.53;;;18.90;99.90;;;;;;5074288;28;20033;-81
2023/08/01 03:24:51;;;;;;;4.30;2.20;;;18.90;99.90;;;;;;5073731;28;20024;-81
2023/08/01 03:27:16;;;;;;;3.63;1.88;;;18.80;99.90;;;;;;5056308;28;20119;-81
2023/08/01 03:29:42;;;;;;;5.10;2.45;;;18.80;99.90;;;;;;5055938;28;20040;-84
2023/08/01 03:32:08;;;;;;;7.10;2.00;;;18.80;99.90;;;;;;5055955;28;20027;-81
2023/08/01 03:34:33;;;;;;;7.18;2.60;;;18.80;99.90;;;;;;5056161;28;20052;-81
2023/08/01 03:36:59;;;;;;;6.72;2.40;;;18.80;99.90;;;;;;5073683;28;20468;-81
2023/08/01 03:39:24;;;;;;;4.85;2.10;;;18.80;99.90;;;;;;5074051;28;20037;-82
2023/08/01 03:41:51;;;;;;;5.53;2.33;;;18.80;99.90;;;;;;5055839;28;20021;-82
2023/08/01 03:44:17;;;;;;;4.35;1.90;;;18.90;99.90;;;;;;5056727;28;20090;-82
2023/08/01 03:46:43;;;;;;;7.25;2.45;;;18.90;99.90;;;;;;5056189;28;20420;-82
2023/08/01 03:49:09;;;;;;;5.82;2.90;;;18.90;99.90;;;;;;5055717;28;20500;-83
2023/08/01 03:51:34;;;;;;;5.38;2.20;;;18.90;99.90;;;;;;5058959;28;20063;-81
2023/08/01 03:54:00;;;;;;;8.15;3.08;;;18.90;99.90;;;;;;5059992;28;20067;-81
2023/08/01 03:56:27;;;;;;;3.10;1.90;;;18.90;99.90;;;;;;5060230;28;20056;-81
2023/08/01 03:58:53;;;;;;;4.38;2.17;;;18.80;99.90;;;;;;5077903;28;20449;-81
2023/08/01 04:01:19;;;;;;;4.95;2.30;;;18.90;99.90;;;;;;5048907;28;20084;-82
2023/08/01 04:03:45;;;;;;;4.90;2.35;;;18.80;99.90;;;;;;5072924;28;20028;-86
2023/08/01 04:06:15;;;;;;;6.63;2.35;;;18.90;99.90;;;;;;5056250;28;20025;-81
2023/08/01 04:08:40;;;;;;;6.65;2.53;;;18.80;99.90;;;;;;5057620;28;20063;-80
2023/08/01 04:11:06;;;;;;;4.95;2.30;;;18.90;99.90;;;;;;5056033;28;20068;-81
2023/08/01 04:13:31;;;;;;;7.13;2.42;;;18.90;99.90;;;;;;5057924;28;20033;-80
2023/08/01 04:15:57;;;;;;;8.32;2.53;;;18.90;99.90;;;;;;5039894;28;20052;-80
2023/08/01 04:18:22;;;;;;;5.10;2.42;;;18.90;99.90;;;;;;5056709;28;20036;-79
2023/08/01 04:20:48;;;;;;;4.75;2.00;;;18.90;99.90;;;;;;5056926;28;20156;-83
2023/08/01 04:23:14;;;;;;;4.88;2.25;;;18.90;99.90;;;;;;5057594;28;20458;-80
2023/08/01 04:25:40;;;;;;;5.22;2.33;;;18.90;99.90;;;;;;5057318;28;20068;-80
2023/08/01 04:28:06;;;;;;;5.60;2.28;;;18.80;99.90;;;;;;5072479;28;20035;-80
2023/08/01 04:30:33;;;;;;;6.05;2.38;;;18.80;99.90;;;;;;5056072;28;20033;-80
2023/08/01 04:32:58;;;;;;;4.75;2.35;;;18.80;99.90;;;;;;5055757;28;20160;-80
2023/08/01 04:35:24;;;;;;;6.20;2.25;;;18.80;99.90;;;;;;5057050;28;20052;-80
2023/08/01 04:37:50;;;;;;;5.28;2.50;;;18.80;99.90;;;;;;5055676;28;20067;-85
2023/08/01 04:40:15;;;;;;;4.88;2.30;;;18.80;99.90;;;;;;5055749;28;20037;-80
2023/08/01 04:42:41;;;;;;;6.38;2.40;;;18.80;99.90;;;;;;5056779;28;20041;-80
2023/08/01 04:45:07;;;;;;;4.22;2.20;;;18.70;99.90;;;;;;5056474;28;20024;-80
2023/08/01 04:47:32;;;;;;;8.00;2.33;;;18.70;99.90;;;;;;5055694;28;20032;-79
2023/08/01 04:49:58;;;;;;;4.35;2.25;;;18.60;99.90;;;;;;5071941;28;20036;-80
2023/08/01 04:52:23;;;;;;;8.35;2.65;;;18.60;99.90;;;;;;5039323;28;20044;-80
2023/08/01 04:54:49;;;;;;;6.90;2.00;;;18.70;99.90;;;;;;5056597;28;20029;-83
2023/08/01 04:57:14;;;;;;;7.60;2.20;;;18.70;99.90;;;;;;5039641;28;20021;-79
2023/08/01 04:59:40;;;;;;;4.60;2.00;;;18.70;99.90;;;;;;5055668;28;20367;-79
2023/08/01 05:02:06;;;;;;;8.38;2.25;;;18.70;99.90;;;;;;5054940;28;20025;-80
2023/08/01 05:04:31;;;;;;;5.43;2.63;;;18.70;99.90;;;;;;5055481;28;20048;-79
2023/08/01 05:06:57;;;;;;;6.65;2.30;;;18.70;99.90;;;;;;5055760;28;20023;-80
2023/08/01 05:09:22;;;;;;;4.85;2.03;;;18.70;99.90;;;;;;5056021;28;20045;-79
2023/08/01 05:11:48;;;;;;;5.25;2.10;;;18.70;99.90;;;;;;5072082;28;20032;-84
2023/08/01 05:14:13;;;;;;;6.93;2.72;;;18.70;99.90;;;;;;5055967;28;20023;-82
2023/08/01 05:16:39;;;;;;;5.63;2.53;;;18.70;99.90;;;;;;5055864;28;20079;-82
2023/08/01 05:19:05;;;;;;;4.50;2.30;;;18.70;99.90;;;;;;5038545;28;20481;-79
2023/08/01 05:21:30;;;;;;;6.20;2.38;;;18.70;99.90;;;;;;5056528;28;20029;-80
2023/08/01 05:23:56;;;;;;;5.88;2.60;;;18.70;99.90;;;;;;5055991;28;20029;-80
2023/08/01 05:26:22;;;;;;;9.50;2.97;;;18.70;99.90;;;;;;5055871;28;20450;-80
2023/08/01 05:28:47;;;;;;;7.22;2.58;;;18.70;99.90;;;;;;5038523;28;20031;-80
2023/08/01 05:31:13;;;;;;;10.32;2.90;;;18.70;99.90;;;;;;5071516;28;20378;-80
2023/08/01 05:33:38;;;;;;;5.85;2.33;;;18.70;99.90;;;;;;5071606;28;20168;-80
2023/08/01 05:36:05;;;;;;;4.57;2.40;;;18.70;99.90;;;;;;5056112;28;20032;-79
2023/08/01 05:38:30;;;;;;;6.60;2.40;;;18.70;99.90;;;;;;5054778;28;20025;-80
2023/08/01 05:40:56;;;;;;;6.38;2.30;;;18.70;99.90;;;;;;5042641;28;20043;-80
2023/08/01 05:43:21;;;;;;;5.00;2.38;;;18.70;99.90;;;;;;5037685;28;20450;-80
2023/08/01 05:45:47;;;;;;;5.18;2.17;;;18.70;99.90;;;;;;5038153;28;20060;-80
2023/08/01 05:48:13;;;;;;;4.50;2.10;;;18.70;99.90;;;;;;5055111;28;20032;-82
2023/08/01 05:50:39;;;;;;;5.82;2.40;;;18.60;99.90;;;;;;5038013;28;20033;-80
2023/08/01 05:53:04;;;;;;;8.35;2.60;;;18.50;99.90;;;;;;5037325;28;20021;-80
2023/08/01 05:55:30;;;;;;;4.57;2.50;;;18.50;99.90;;;;;;5055629;28;20067;-81
2023/08/01 05:57:55;;;;;;;6.35;2.55;;;18.40;99.90;;;;;;5055070;28;20095;-82
2023/08/01 06:00:21;;;;;;;5.65;2.30;;;18.40;99.90;;;;;;5055116;28;20131;-80
2023/08/01 06:02:47;;;;;;;4.75;2.75;;;18.30;99.90;;;;;;5037788;28;20025;-80
2023/08/01 06:05:12;;;;;;;9.00;2.50;;;18.30;99.90;;;;;;5037448;28;20128;-80
2023/08/01 06:07:38;;;;;;;7.80;3.05;;;18.20;99.90;;;;;;5055773;28;20124;-81
2023/08/01 06:10:04;;;;;;;7.68;3.00;;;18.10;99.90;;;;;;5055225;28;20048;-82
2023/08/01 06:12:30;;;;;;;7.07;2.50;;;18.10;99.90;;;;;;5054809;28;20378;-81
2023/08/01 06:14:55;;;;;;;6.78;3.00;;;18.00;99.90;;;;;;5054730;28;20024;-85
2023/08/01 06:17:21;;;;;;;5.55;3.03;;;17.90;99.90;;;;;;5055653;28;20025;-82
2023/08/01 06:19:47;;;;;;;6.43;2.80;;;17.90;99.90;;;;;;5055853;28;20036;-81
2023/08/01 06:22:13;;;;;;;6.30;2.90;;;17.90;99.90;;;;;;5037193;28;20032;-81
2023/08/01 06:24:38;;;;;;;5.20;2.60;;;18.00;99.90;;;;;;5055184;28;20025;-81
2023/08/01 06:27:05;;;;;;;5.18;2.90;;;18.00;99.90;;;;;;5054901;28;20025;-81
2023/08/01 06:29:31;;;;;;;5.20;2.58;;;17.90;99.90;;;;;;5055127;28;20029;-81
2023/08/01 06:31:56;;;;;;;5.93;2.80;;;17.90;99.90;;;;;;5054744;28;20152;-83
2023/08/01 06:34:22;;;;;;;11.20;3.20;;;17.90;99.90;;;;;;5055010;28;20033;-81
2023/08/01 06:36:48;;;;;;;9.63;3.05;;;17.90;99.90;;;;;;5037426;28;20029;-80
2023/08/01 06:39:13;;;;;;;7.05;3.00;;;17.90;99.90;;;;;;5036991;28;20067;-82
2023/08/01 06:41:39;;;;;;;8.48;3.53;;;17.80;99.90;;;;;;5055126;28;20035;-81
2023/08/01 06:44:04;;;;;;;6.75;3.17;;;17.90;99.90;;;;;;5036995;28;20036;-82
2023/08/01 06:46:30;;;;;;;6.80;3.60;;;17.80;99.90;;;;;;5054478;28;20033;-81
2023/08/01 06:48:56;;;;;;;6.15;3.13;;;17.90;99.90;;;;;;5063011;28;20025;-81
2023/08/01 06:51:21;;;;;;;6.50;3.17;;;17.80;99.90;;;;;;5050069;28;20032;-80
2023/08/01 06:53:47;;;;;;;11.20;3.30;;;17.80;99.90;;;;;;5053462;28;20029;-81
2023/08/01 06:56:12;;;;;;;6.93;3.55;;;17.90;99.90;;;;;;5073448;28;20074;-83
2023/08/01 06:58:38;;;;;;;4.80;2.72;;;17.90;99.90;;;;;;5053106;28;20028;-81
2023/08/01 07:01:04;;;;;;;6.50;3.38;;;17.90;99.90;;;;;;5073931;28;20045;-81
2023/08/01 07:03:29;;;;;;;6.40;3.20;;;17.90;99.90;;;;;;5057365;28;20029;-81
2023/08/01 07:05:55;;;;;;;9.27;3.33;;;17.90;99.90;;;;;;5056238;28;20028;-85
2023/08/01 07:08:21;;;;;;;8.07;2.95;;;18.00;99.90;;;;;;5057215;28;20111;-81
2023/08/01 07:10:47;;;;;;;6.28;3.10;;;18.10;99.90;;;;;;5074334;28;20113;-80
2023/08/01 07:13:12;;;;;;;6.80;2.97;;;18.10;99.90;;;;;;5074254;28;20028;-81
2023/08/01 07:15:38;;;;;;;6.53;3.00;;;18.10;99.90;;;;;;5074642;28;20100;-80
2023/08/01 07:18:03;;;;;;;6.97;3.53;;;18.20;99.90;;;;;;5056274;28;20111;-83
2023/08/01 07:20:29;;;;;;;6.47;3.13;;;18.10;99.90;;;;;;5042596;28;20029;-81
2023/08/01 07:22:55;;;;;;;6.63;2.92;;;18.10;99.90;;;;;;5036664;28;20435;-82
2023/08/01 07:25:22;;;;;;;5.70;2.72;;;18.10;99.90;;;;;;5053201;28;20032;-81
2023/08/01 07:27:47;;;;;;;7.18;2.83;;;18.10;99.90;;;;;;5036089;28;20450;-81
2023/08/01 07:30:13;;;;;;;6.57;3.00;;;18.10;99.90;;;;;;5035911;28;20056;-81
2023/08/01 07:32:39;;;;;;;6.95;2.95;;;18.00;99.90;;;;;;5057597;28;20497;-84
2023/08/01 07:35:06;;;;;;;6.53;3.08;;;18.00;99.90;;;;;;5052923;28;20025;-83
2023/08/01 07:37:33;;;;;;;5.25;2.50;;;18.00;99.90;;;;;;5036128;28;20103;-83
2023/08/01 07:39:59;;;;;;;5.65;2.60;;;18.00;99.90;;;;;;5058223;28;20091;-86
2023/08/01 07:42:24;;;;;;;4.95;2.50;;;18.10;99.90;;;;;;5039276;28;20104;-83
2023/08/01 07:44:50;;;;;;;5.57;2.58;;;18.10;99.90;;;;;;5059729;28;20103;-84
2023/08/01 07:47:15;;;;;;;5.20;2.20;;;18.10;99.90;;;;;;5043023;28;20025;-81
2023/08/01 07:49:41;;;;;;;4.70;1.98;;;18.20;99.90;;;;;;5035886;28;20029;-81
2023/08/01 07:52:07;;;;;;;6.00;2.75;;;18.10;99.90;;;;;;5035770;28;20478;-81
2023/08/01 07:54:33;;;;;;;7.00;2.42;;;18.20;99.90;;;;;;5035639;28;20048;-81
2023/08/01 07:56:58;;;;;;;5.53;2.05;;;18.20;99.90;;;;;;5036381;28;20037;-83
2023/08/01 07:59:24;;;;;;;5.07;1.80;;;18.10;99.90;;;;;;5035469;28;20112;-82
2023/08/01 08:01:49;;;;;;;3.65;1.90;;;18.20;99.90;;;;;;5036234;28;20075;-87
2023/08/01 08:04:15;;;;;;;3.70;1.85;;;18.10;99.90;;;;;;5045065;28;20029;-80
2023/08/01 08:06:41;;;;;;;5.90;1.70;;;18.10;99.90;;;;;;5053921;28;20029;-81
2023/08/01 08:09:06;;;;;;;3.22;1.50;;;18.10;99.90;;;;;;5052977;28;20029;-81
2023/08/01 08:11:33;;;;;;;6.45;1.95;;;18.10;99.90;;;;;;5053947;28;20099;-83
2023/08/01 08:13:59;;;;;;;3.53;1.77;;;18.20;99.90;;;;;;5053420;28;20107;-92
2023/08/01 08:16:25;;;;;;;4.38;1.90;;;18.20;99.90;;;;;;5053821;28;20017;-81
2023/08/01 08:18:51;;;;;;;3.80;1.60;;;18.30;99.90;;;;;;5029845;28;20120;-84
2023/08/01 08:21:17;;;;;;;3.72;1.63;;;18.30;99.90;;;;;;5033001;28;20504;-81
2023/08/01 08:23:42;;;;;;;2.17;1.33;;;18.40;99.90;;;;;;5016269;28;20032;-81
2023/08/01 08:26:08;;;;;;;3.08;1.42;;;18.40;99.90;;;;;;5016776;28;20386;-83
2023/08/01 08:28:34;;;;;;;3.63;1.58;;;18.40;99.90;;;;;;5016259;28;20026;-80
2023/08/01 08:31:02;;;;;;;2.17;1.30;;;18.40;99.90;;;;;;5016558;28;20045;-89
2023/08/01 08:33:28;;;;;;;2.50;1.60;;;18.50;99.90;;;;;;5015878;28;20025;-81
2023/08/01 08:35:54;;;;;;;3.50;1.50;;;18.50;99.90;;;;;;5016707;28;20026;-82
2023/08/01 08:38:19;;;;;;;3.05;1.33;;;18.50;99.90;;;;;;5041344;28;20037;-82
2023/08/01 08:41:13;;;;;;;4.80;2.55;;;18.50;99.90;;;;;;5036995;28;20038;-82
2023/08/01 08:43:39;;;;;;;4.50;2.55;;;18.50;99.90;;;;;;5026225;28;20029;-83
2023/08/01 08:46:05;;;;;;;2.65;2.08;;;18.70;99.90;;;;;;5019160;28;20048;-84
2023/08/01 08:48:32;;;;;;;2.50;1.58;;;18.80;99.90;;;;;;5028649;28;20032;-85
2023/08/01 08:50:59;;;;;;;3.00;1.40;;;18.80;99.90;;;;;;5021379;28;20129;-83
2023/08/01 08:53:25;;;;;;;2.47;1.38;;;18.70;99.90;;;;;;5011262;28;20034;-82
2023/08/01 08:55:50;;;;;;;1.77;1.10;;;18.70;99.90;;;;;;5038794;28;20167;-82
2023/08/01 08:58:17;;;;;;;2.05;1.17;;;18.70;99.90;;;;;;5038034;28;20064;-82
2023/08/01 09:00:44;;;;;;;2.38;1.20;;;18.80;99.90;;;;;;5022016;28;20501;-82
2023/08/01 09:03:09;;;;;;;2.60;1.13;;;18.80;99.90;;;;;;5035577;28;20029;-82
2023/08/01 09:05:43;;;;;;;2.90;1.27;;;18.80;99.90;;;;;;5035406;28;20036;-82
2023/08/01 09:08:20;;;;;;;2.00;1.50;;;18.80;99.90;;;;;;5012428;28;20029;-83
2023/08/01 09:10:46;;;;;;;3.00;1.55;;;18.80;99.90;;;;;;5036979;28;20041;-83
2023/08/01 09:13:12;;;;;;;2.88;1.20;;;18.90;99.90;;;;;;5016918;28;20107;-83
2023/08/01 09:15:41;;;;;;;1.88;0.98;;;19.00;99.90;;;;;;5035426;28;20490;-83
2023/08/01 09:18:07;;;;;;;2.83;1.27;;;19.00;99.90;;;;;;5017538;28;20025;-82
2023/08/01 09:20:47;;;;;;;1.90;0.95;;;19.10;99.90;;;;;;5018544;28;20037;-83
2023/08/01 09:23:14;;;;;;;2.15;0.85;;;19.20;99.90;;;;;;5014191;28;20017;-84
2023/08/01 09:25:40;;;;;;;1.08;0.70;;;19.40;99.90;;;;;;5017649;28;20071;-84
2023/08/01 09:28:21;;;;;;;0.70;0.60;;;19.40;99.90;;;;;;5017765;28;20403;-84
2023/08/01 09:30:54;;;;;;;2.70;0.70;;;19.50;99.90;;;;;;5035374;28;20541;-83
2023/08/01 09:33:19;;;;;;;1.95;0.80;;;19.50;99.90;;;;;;5008617;28;20100;-84
2023/08/01 09:35:45;;;;;;;0.70;0.55;;;19.50;99.90;;;;;;5035939;28;20029;-84
2023/08/01 09:38:15;;;;;;;2.13;0.57;;;19.70;99.90;;;;;;5017936;28;20549;-84
2023/08/01 09:40:42;;;;;;;3.03;0.60;;;19.80;99.90;;;;;;5035517;28;20041;-83
2023/08/01 09:43:08;;;;;;;1.05;0.50;;;20.00;99.90;;;;;;5035257;28;20033;-85
2023/08/01 09:45:36;;;;;;;2.22;0.80;;;19.90;99.90;;;;;;5035786;28;20105;-84
2023/08/01 09:48:02;;;;;;;2.30;0.45;;;20.00;99.90;;;;;;5016828;28;20026;-85
2023/08/01 09:50:29;;;;;;;1.83;0.50;;;20.00;99.90;;;;;;5017738;28;20092;-83
2023/08/01 09:52:54;;;;;;;1.00;0.40;;;19.90;99.90;;;;;;5035426;28;20029;-83
2023/08/01 09:55:37;;;;;;;1.88;0.47;;;19.90;99.90;;;;;;5030510;28;20030;-82
2023/08/01 09:58:04;;;;;;;3.85;0.50;;;19.80;99.90;;;;;;5015720;28;20052;-82
2023/08/01 10:00:30;;;;;;;1.50;0.50;;;19.80;99.90;;;;;;5036384;28;20051;-86
2023/08/01 10:03:00;;;;;;;0.65;0.45;;;19.70;99.90;;;;;;5057654;28;20059;-84
2023/08/01 10:05:30;;;;;;;0.82;0.30;;;19.80;99.90;;;;;;5074788;28;20032;-86
2023/08/01 10:08:00;;;;;;;0.63;0.40;;;20.00;99.90;;;;;;5072481;28;20097;-85
2023/08/01 10:10:26;;;;;;;0.32;0.30;;;20.00;99.90;;;;;;5056217;28;20045;-84
2023/08/01 10:12:53;;;;;;;2.13;0.60;;;19.90;99.90;;;;;;5056475;28;20020;-85
2023/08/01 10:15:19;;;;;;;0.98;0.70;;;20.10;99.90;;;;;;5056608;28;20027;-84
2023/08/01 10:17:44;;;;;;;2.42;0.70;;;20.20;99.90;;;;;;5073872;28;20028;-83
2023/08/01 10:20:12;;;;;;;0.57;0.30;;;20.30;99.90;;;;;;5066540;28;20107;-82
2023/08/01 10:22:39;;;;;;;0.77;0.43;;;20.40;99.90;;;;;;5074279;28;20469;-82
2023/08/01 10:25:06;;;;;;;2.40;0.40;;;20.50;99.90;;;;;;5056635;28;20107;-84
2023/08/01 10:27:35;;;;;;;0.50;0.30;;;20.40;99.90;;;;;;5074700;28;20027;-83
2023/08/01 10:30:03;;;;;;;0.55;0.38;;;20.40;99.90;;;;;;5074386;28;20583;-82
2023/08/01 10:32:37;;;;;;;2.20;0.47;;;20.50;99.90;;;;;;5056479;28;20028;-79
2023/08/01 10:35:04;;;;;;;3.63;1.40;;;20.60;99.90;;;;;;5073703;28;20033;-81
2023/08/01 10:37:44;;;;;;;2.05;0.70;;;20.60;99.90;;;;;;5055885;28;20020;-81
2023/08/01 10:40:10;;;;;;;2.00;0.60;;;20.60;99.90;;;;;;5073294;28;20078;-81
2023/08/01 10:42:46;;;;;;;1.40;0.40;;;20.70;99.90;;;;;;5055715;28;20024;-79
2023/08/01 10:45:24;;;;;;;1.15;0.43;;;20.80;99.90;;;;;;5055528;28;20423;-82
2023/08/01 10:47:50;;;;;;;0.60;0.40;;;20.70;99.90;;;;;;5062065;28;20103;-82
2023/08/01 10:50:16;;;;;;;1.10;0.50;;;20.70;99.90;;;;;;5056054;28;20474;-81
2023/08/01 10:52:43;;;;;;;3.72;0.60;;;20.60;99.90;;;;;;5073765;28;20024;-79
2023/08/01 10:55:09;;;;;;;0.47;0.38;;;20.70;99.90;;;;;;5056642;28;20028;-82
2023/08/01 10:57:37;;;;;;;1.00;0.60;;;20.90;99.90;;;;;;5056441;28;20027;-81
2023/08/01 11:00:09;;;;;;;1.85;0.50;;;21.10;99.90;;;;;;5055620;28;20044;-84
2023/08/01 11:02:35;;;;;;;2.22;0.60;;;21.30;99.90;;;;;;5056182;28;20078;-84
2023/08/01 11:05:03;;;;;;;1.92;0.98;;;21.40;99.90;;;;;;5073887;28;20040;-83
2023/08/01 11:07:29;;;;;;;2.35;0.70;;;21.20;99.90;;;;;;5056117;28;20024;-85
2023/08/01 11:10:25;;;;;;;2.17;0.90;;;21.00;99.90;;;;;;5073146;28;20041;-85
2023/08/01 11:12:51;;;;;;;0.98;0.50;;;21.00;99.90;;;;;;5043976;28;20036;-85
2023/08/01 11:15:17;;;;;;;1.92;1.00;;;21.10;99.90;;;;;;5055660;28;20028;-85
2023/08/01 11:17:47;;;;;;;4.35;0.82;;;21.20;99.90;;;;;;5056327;28;20021;-85
2023/08/01 11:20:13;;;;;;;1.77;0.80;;;21.40;99.90;;;;;;5055629;28;20024;-85
2023/08/01 11:22:57;;;;;;;1.20;0.50;;;21.40;99.90;;;;;;5072911;28;20159;-85
2023/08/01 11:25:37;;;;;;;1.65;0.70;;;21.30;99.90;;;;;;5062485;28;20107;-85
2023/08/01 11:28:16;;;;;;;1.77;0.57;;;21.40;99.90;;;;;;5060058;28;20065;-83
2023/08/01 11:30:42;;;;;;;2.42;0.50;;;21.60;99.90;;;;;;5056136;28;20044;-83
2023/08/01 11:33:20;;;;;;;1.52;0.68;;;21.60;99.90;;;;;;5055483;28;20116;-86
2023/08/01 11:35:46;;;;;;;1.95;1.25;;;21.70;99.90;;;;;;5055302;28;20028;-87
2023/08/01 11:38:11;;;;;;;2.38;0.63;;;21.80;99.90;;;;;;5054702;28;20020;-87
2023/08/01 11:40:38;;;;;;;2.25;0.60;;;21.70;99.90;;;;;;5055893;28;20047;-84
2023/08/01 11:43:04;;;;;;;4.38;0.57;;;21.60;99.90;;;;;;5073319;28;20021;-84
2023/08/01 11:45:29;;;;;;;1.92;0.73;;;21.60;99.90;;;;;;5073778;28;20028;-83
2023/08/01 11:47:55;;;;;;;2.00;0.68;;;21.60;99.90;;;;;;5055563;28;20029;-83
2023/08/01 11:50:26;;;;;;;1.45;0.60;;;21.70;99.90;;;;;;5073230;28;20036;-83
2023/08/01 11:52:52;;;;;;;3.83;0.57;;;21.90;99.90;;;;;;5073357;28;20346;-86
2023/08/01 11:55:22;;;;;;;3.40;0.63;;;22.20;99.90;;;;;;5055762;28;20767;-85
2023/08/01 11:57:58;;;;;;;1.93;0.53;;;22.00;99.90;;;;;;5057897;28;20021;-87
2023/08/01 12:00:28;;;;;;;1.52;0.70;;;21.90;99.90;;;;;;5055116;28;20123;-84
2023/08/01 12:03:05;;;;;;;2.47;0.70;;;21.90;99.90;;;;;;5073313;28;20105;-85
2023/08/01 12:05:31;;;;;;;2.40;0.60;;;21.80;99.90;;;;;;5055007;28;20514;-86
2023/08/01 12:08:08;;;;;;;2.10;0.68;;;21.80;99.90;;;;;;5054606;28;20115;-86
2023/08/01 12:10:46;;;;;;;2.20;0.80;;;21.80;99.90;;;;;;5066132;28;20120;-85
2023/08/01 12:13:22;;;;;;;1.88;0.65;;;21.90;99.90;;;;;;5055316;28;20115;-84
2023/08/01 12:15:52;;;;;;;1.60;0.70;;;22.00;99.90;;;;;;5077403;28;20016;-85
2023/08/01 12:18:29;;;;;;;1.58;0.60;;;22.10;99.90;;;;;;5059366;28;20024;-84
2023/08/01 12:20:54;;;;;;;2.05;0.50;;;22.20;99.90;;;;;;5077045;28;20032;-83
2023/08/01 12:23:21;;;;;;;0.50;0.40;;;22.30;99.90;;;;;;5076443;28;20059;-84
2023/08/01 12:25:46;;;;;;;1.60;0.60;;;22.40;99.90;;;;;;5076871;28;20033;-85
2023/08/01 12:28:14;;;;;;;2.20;0.60;;;22.50;99.50;;;;;;5059031;28;20358;-84
2023/08/01 12:30:41;;;;;;;2.05;0.50;;;22.50;98.40;;;;;;5058835;28;20115;-84
2023/08/01 12:33:07;;;;;;;0.85;0.50;;;22.60;98.60;;;;;;5071889;28;20050;-85
2023/08/01 12:35:33;;;;;;;1.80;0.55;;;22.80;99.00;;;;;;5058866;28;20025;-83
2023/08/01 12:37:59;;;;;;;0.88;0.65;;;22.90;97.70;;;;;;5058870;28;20024;-82
2023/08/01 12:40:24;;;;;;;1.55;0.60;;;23.00;97.10;;;;;;5076205;28;20032;-83
2023/08/01 12:42:50;;;;;;;1.42;0.70;;;23.10;97.30;;;;;;5076674;28;20365;-83